createdAt,value
2018-09-06T00:01:08.358Z,16.799999
2018-09-06T00:06:11.723Z,16.700001
2018-09-06T00:11:12.928Z,16.700001
2018-09-06T00:16:15.223Z,16.6
2018-09-06T00:21:17.460Z,16.5
2018-09-06T00:26:21.323Z,16.5
2018-09-06T00:31:22.062Z,16.4
2018-09-06T00:36:24.486Z,16.299999
2018-09-06T00:41:26.653Z,16.299999
2018-09-06T00:46:28.903Z,16.200001
2018-09-06T00:51:31.312Z,16.1
2018-09-06T00:56:33.585Z,16
2018-09-06T01:01:35.879Z,15.9
2018-09-06T01:06:38.189Z,15.9
2018-09-06T01:11:40.506Z,15.8
2018-09-06T01:16:42.858Z,15.8
2018-09-06T01:21:45.138Z,15.7
2018-09-06T01:26:47.368Z,15.6
2018-09-06T01:31:49.649Z,15.6
2018-09-06T01:36:51.997Z,15.6
2018-09-06T01:41:55.676Z,15.6
2018-09-06T01:46:56.577Z,15.6
2018-09-06T01:51:58.896Z,15.6
2018-09-06T01:57:01.169Z,15.6
2018-09-06T02:02:03.342Z,15.5
2018-09-06T02:07:05.756Z,15.5
2018-09-06T02:12:07.930Z,15.5
2018-09-06T02:17:10.292Z,15.5
2018-09-06T02:22:12.685Z,15.5
2018-09-06T02:27:14.901Z,15.6
2018-09-06T02:32:17.108Z,15.6
2018-09-06T02:37:19.396Z,15.6
2018-09-06T02:42:21.756Z,15.5
2018-09-06T02:47:24.128Z,15.5
2018-09-06T02:52:26.340Z,15.5
2018-09-06T02:57:28.650Z,15.5
2018-09-06T03:02:30.902Z,15.6
2018-09-06T03:07:33.215Z,15.6
2018-09-06T03:12:35.471Z,15.6
2018-09-06T03:17:37.957Z,15.6
2018-09-06T03:22:40.169Z,15.5
2018-09-06T03:27:42.467Z,15.5
2018-09-06T03:32:44.692Z,15.5
2018-09-06T03:37:46.980Z,15.4
2018-09-06T03:42:49.264Z,15.4
2018-09-06T03:47:51.708Z,15.5
2018-09-06T03:52:53.826Z,15.6
2018-09-06T04:02:58.413Z,15.7
2018-09-06T04:08:00.809Z,15.9
2018-09-06T04:13:03.059Z,15.9
2018-09-06T04:18:05.361Z,16
2018-09-06T04:23:07.658Z,16.1
2018-09-06T04:28:09.873Z,16.1
2018-09-06T04:33:12.245Z,16.200001
2018-09-06T04:38:14.530Z,16.299999
2018-09-06T04:43:16.875Z,16.4
2018-09-06T04:48:19.073Z,16.4
2018-09-06T04:53:21.481Z,16.5
2018-09-06T04:58:23.896Z,16.5
2018-09-06T05:03:26.032Z,16.6
2018-09-06T05:08:28.265Z,16.6
2018-09-06T05:13:30.546Z,16.6
2018-09-06T05:18:32.920Z,16.700001
2018-09-06T05:23:35.117Z,16.700001
2018-09-06T05:28:37.455Z,16.700001
2018-09-06T05:33:39.770Z,16.700001
2018-09-06T05:38:42.076Z,16.799999
2018-09-06T05:43:44.352Z,16.799999
2018-09-06T05:48:46.800Z,16.9
2018-09-06T05:53:48.999Z,16.9
2018-09-06T05:58:52.646Z,16.9
2018-09-06T06:03:53.624Z,16.9
2018-09-06T06:08:55.848Z,17
2018-09-06T06:13:58.153Z,17.1
2018-09-06T06:19:00.362Z,17.1
2018-09-06T06:24:02.729Z,17
2018-09-06T06:29:05.030Z,17.1
2018-09-06T06:34:07.473Z,17.1
2018-09-06T06:39:09.970Z,17.1
2018-09-06T06:44:11.923Z,17.200001
2018-09-06T06:49:14.202Z,17.299999
2018-09-06T06:54:16.538Z,17.4
2018-09-06T06:59:18.766Z,17.4
2018-09-06T07:04:21.226Z,17.4
2018-09-06T07:09:23.426Z,17.5
2018-09-06T07:14:25.736Z,17.4
2018-09-06T07:19:28.019Z,17.5
2018-09-06T07:24:30.284Z,17.5
2018-09-06T07:29:32.502Z,17.5
2018-09-06T07:34:34.820Z,17.4
2018-09-06T07:39:37.147Z,17.5
2018-09-06T07:44:39.434Z,17.5
2018-09-06T07:49:41.850Z,17.6
2018-09-06T07:54:44.028Z,17.6
2018-09-06T07:59:46.311Z,17.700001
2018-09-06T08:04:48.732Z,17.799999
2018-09-06T08:09:51.137Z,18
2018-09-06T08:14:53.266Z,18.200001
2018-09-06T08:19:55.871Z,18.299999
2018-09-06T08:24:57.775Z,18.4
2018-09-06T08:30:00.086Z,18.6
2018-09-06T08:35:02.338Z,18.700001
2018-09-06T08:40:04.596Z,18.799999
2018-09-06T08:45:07.061Z,18.799999
2018-09-06T08:50:09.210Z,18.9
2018-09-06T08:55:11.604Z,19
2018-09-06T09:00:13.815Z,19.1
2018-09-06T09:05:16.208Z,19
2018-09-06T09:10:18.495Z,18.9
2018-09-06T09:15:20.750Z,18.799999
2018-09-06T09:20:23.141Z,18.700001
2018-09-06T09:25:25.324Z,18.700001
2018-09-06T09:30:27.679Z,18.700001
2018-09-06T09:35:29.884Z,18.700001
2018-09-06T09:40:32.279Z,18.700001
2018-09-06T09:45:34.533Z,18.700001
2018-09-06T09:51:06.882Z,18.9
2018-09-06T09:55:39.202Z,19.1
2018-09-06T10:00:41.400Z,19.5
2018-09-06T10:05:43.694Z,20.1
2018-09-06T10:10:47.102Z,20.299999
2018-09-06T10:15:48.381Z,20.6
2018-09-06T10:20:50.565Z,20.799999
2018-09-06T10:25:52.838Z,21.1
2018-09-06T10:30:55.071Z,21.1
2018-09-06T10:35:57.532Z,21.799999
2018-09-06T10:40:59.713Z,23
2018-09-06T10:46:02.008Z,23.299999
2018-09-06T10:51:04.351Z,22.799999
2018-09-06T10:56:06.654Z,23.200001
2018-09-06T11:01:08.911Z,24.200001
2018-09-06T11:06:11.267Z,25.200001
2018-09-06T11:11:13.557Z,26
2018-09-06T11:16:15.871Z,26.200001
2018-09-06T11:21:18.206Z,25.700001
2018-09-06T11:26:20.432Z,25.700001
2018-09-06T11:31:22.678Z,25.6
2018-09-06T11:36:25.005Z,26.5
2018-09-06T11:41:27.281Z,27.4
2018-09-06T11:46:29.616Z,27.1
2018-09-06T11:51:31.951Z,25.799999
2018-09-06T11:56:34.187Z,25
2018-09-06T12:01:36.429Z,24.299999
2018-09-06T12:06:38.741Z,23.299999
2018-09-06T12:11:41.009Z,22.799999
2018-09-06T12:16:43.341Z,22.700001
2018-09-06T12:21:45.637Z,23.4
2018-09-06T12:26:47.888Z,23.9
2018-09-06T12:31:50.213Z,25.1
2018-09-06T12:36:52.513Z,25.799999
2018-09-06T12:41:54.792Z,25
2018-09-06T12:46:57.195Z,24.4
2018-09-06T12:51:59.386Z,24.1
2018-09-06T12:57:01.656Z,24
2018-09-06T13:02:04.008Z,23.6
2018-09-06T13:07:06.271Z,23.9
2018-09-06T13:12:08.586Z,25.1
2018-09-06T13:17:10.835Z,25.299999
2018-09-06T13:22:13.167Z,25.299999
2018-09-06T13:27:15.576Z,25.1
2018-09-06T13:32:17.784Z,24.9
2018-09-06T13:37:19.991Z,25.5
2018-09-06T13:42:22.418Z,25.9
2018-09-06T13:47:24.674Z,26.9
2018-09-06T13:52:26.937Z,27
2018-09-06T13:57:29.240Z,27.299999
2018-09-06T14:02:31.537Z,27.299999
2018-09-06T14:07:33.983Z,26.5
2018-09-06T14:12:36.151Z,25.5
2018-09-06T14:17:38.434Z,25
2018-09-06T14:22:40.910Z,25.200001
2018-09-06T14:27:42.923Z,24.200001
2018-09-06T14:32:46.405Z,23.700001
2018-09-06T14:37:47.537Z,22.9
2018-09-06T14:42:49.794Z,22.6
2018-09-06T14:47:52.206Z,22.6
2018-09-06T14:52:54.549Z,22.1
2018-09-06T14:57:56.824Z,21.799999
2018-09-06T15:02:59.124Z,21.700001
2018-09-06T15:08:01.431Z,22.200001
2018-09-06T15:13:03.726Z,22.299999
2018-09-06T15:18:05.877Z,21.9
2018-09-06T15:23:08.447Z,22.4
2018-09-06T15:28:10.502Z,22.1
2018-09-06T15:33:12.807Z,21.9
2018-09-06T15:38:15.132Z,21.9
2018-09-06T15:43:17.713Z,22.1
2018-09-06T15:48:19.753Z,22
2018-09-06T15:53:22.066Z,21.799999
2018-09-06T15:58:24.212Z,21.5
2018-09-06T16:03:26.580Z,21.200001
2018-09-06T16:08:28.942Z,21.1
2018-09-06T16:13:31.212Z,21
2018-09-06T16:18:33.491Z,21.6
2018-09-06T16:23:35.805Z,22.1
2018-09-06T16:28:38.074Z,22
2018-09-06T16:33:40.392Z,21.299999
2018-09-06T16:38:42.682Z,20.799999
2018-09-06T16:43:44.938Z,20.700001
2018-09-06T16:48:47.197Z,20.4
2018-09-06T16:53:49.579Z,20.1
2018-09-06T16:58:51.802Z,19.799999
2018-09-06T17:03:54.144Z,19.6
2018-09-06T17:08:56.446Z,19.5
2018-09-06T17:13:58.700Z,19.299999
2018-09-06T17:19:00.998Z,19.200001
2018-09-06T17:24:03.244Z,19.1
2018-09-06T17:29:05.573Z,19
2018-09-06T17:34:07.949Z,19
2018-09-06T17:39:10.376Z,18.9
2018-09-06T17:44:14.775Z,18.799999
2018-09-06T17:49:14.809Z,18.700001
2018-09-06T17:54:17.116Z,18.6
2018-09-06T17:59:19.374Z,18.5
2018-09-06T18:04:21.613Z,18.4
2018-09-06T18:09:23.978Z,18.200001
2018-09-06T18:14:26.221Z,18.1
2018-09-06T18:19:29.766Z,18
2018-09-06T18:24:30.820Z,17.9
2018-09-06T18:29:33.223Z,17.799999
2018-09-06T18:34:35.442Z,17.799999
2018-09-06T18:39:37.792Z,17.799999
2018-09-06T18:44:40.035Z,17.700001
2018-09-06T18:49:42.537Z,17.700001
2018-09-06T18:54:44.878Z,17.700001
2018-09-06T18:59:46.874Z,17.6
2018-09-06T19:04:49.242Z,17.6
2018-09-06T19:09:51.541Z,17.6
2018-09-06T19:14:53.790Z,17.5
2018-09-06T19:19:56.064Z,17.5
2018-09-06T19:24:58.341Z,17.4
2018-09-06T19:30:01.436Z,17.4
2018-09-06T19:35:03.047Z,17.4
2018-09-06T19:40:05.254Z,17.4
2018-09-06T19:45:07.605Z,17.299999
2018-09-06T19:50:09.999Z,17.200001
2018-09-06T19:55:12.148Z,17.1
2018-09-06T20:00:14.595Z,17
2018-09-06T20:05:16.839Z,16.700001
2018-09-06T20:10:18.931Z,16.700001
2018-09-06T20:15:21.310Z,16.6
2018-09-06T20:20:23.562Z,16.5
2018-09-06T20:25:25.889Z,16.299999
2018-09-06T20:30:28.267Z,16
2018-09-06T20:35:30.422Z,15.9
2018-09-06T20:40:32.793Z,15.9
2018-09-06T20:45:35.126Z,15.7
2018-09-06T20:50:37.345Z,15.7
2018-09-06T20:55:39.956Z,15.6
2018-09-06T21:00:41.969Z,15.6
2018-09-06T21:05:45.620Z,15.6
2018-09-06T21:10:46.584Z,15.5
2018-09-06T21:15:48.883Z,15.6
2018-09-06T21:20:51.196Z,15.5
2018-09-06T21:25:53.834Z,15.5
2018-09-06T21:30:55.736Z,15.4
2018-09-06T21:35:57.990Z,15.4
2018-09-06T21:41:00.329Z,15.3
2018-09-06T21:46:02.720Z,15.2
2018-09-06T21:51:04.870Z,15.1
2018-09-06T21:56:07.265Z,15.1
2018-09-06T22:01:09.555Z,15
2018-09-06T22:06:11.849Z,14.9
2018-09-06T22:11:14.099Z,14.9
2018-09-06T22:16:16.301Z,14.8
2018-09-06T22:21:18.694Z,14.7
2018-09-06T22:26:20.916Z,14.7
2018-09-06T22:31:24.638Z,14.6
2018-09-06T22:36:25.643Z,14.6
2018-09-06T22:41:28.057Z,14.5
2018-09-06T22:46:30.225Z,14.5
2018-09-06T22:51:32.374Z,14.5
2018-09-06T22:56:34.776Z,14.5
2018-09-06T23:01:37.116Z,14.5
2018-09-06T23:06:39.384Z,14.6
2018-09-06T23:11:41.641Z,14.6
2018-09-06T23:16:43.948Z,14.6
2018-09-06T23:21:46.222Z,14.5
2018-09-06T23:26:48.638Z,14.5
2018-09-06T23:31:50.795Z,14.5
2018-09-06T23:36:53.091Z,14.4
2018-09-06T23:41:55.389Z,14.4
2018-09-06T23:46:57.650Z,14.3
2018-09-06T23:51:59.957Z,14.3
2018-09-06T23:57:02.343Z,14.3
